Time;durP1;ratioP1;P1;durP2;ratioP2;P2;SDS_P1;SDS_P2;PMS_P1;PMS_P2;Temp;Humidity;BMP_temperature;BMP_pressure;BME280_temperature;BME280_humidity;BME280_pressure;Samples;Min_cycle;Max_cycle;Signal;HPM_P1;HPM_P2
2024/01/30 00:00:46;;;;;;;20.85;11.50;;;;;;;9.75;99.00;101758.50;8289862;28;20045;-56
2024/01/30 00:04:46;;;;;;;20.63;11.02;;;;;;;9.67;98.88;101755.47;8288547;28;20038;-56
2024/01/30 00:08:48;;;;;;;22.55;11.25;;;;;;;9.59;99.48;101747.00;8289641;28;20119;-56
2024/01/30 00:12:49;;;;;;;20.60;12.07;;;;;;;9.49;100.00;101748.63;8289309;28;20223;-57
2024/01/30 00:16:51;;;;;;;18.58;11.93;;;;;;;9.48;100.00;101744.16;8294365;28;20128;-56
2024/01/30 00:20:51;;;;;;;23.00;10.68;;;;;;;9.47;99.93;101728.94;8295029;28;20385;-56
2024/01/30 00:24:52;;;;;;;23.50;12.60;;;;;;;9.49;100.00;101735.13;8294640;28;20049;-56
2024/01/30 00:28:52;;;;;;;19.13;10.70;;;;;;;9.54;100.00;101735.66;8290793;28;20038;-55
2024/01/30 00:32:53;;;;;;;17.63;10.80;;;;;;;9.49;99.61;101729.72;8294756;28;20034;-56
2024/01/30 00:36:54;;;;;;;20.58;11.27;;;;;;;9.61;99.38;101731.59;8294846;28;20042;-56
2024/01/30 00:40:54;;;;;;;23.38;11.65;;;;;;;9.59;99.50;101733.50;8294737;28;20048;-56
2024/01/30 00:44:55;;;;;;;18.88;11.43;;;;;;;9.53;99.53;101731.22;8294238;28;20050;-57
2024/01/30 00:48:55;;;;;;;18.80;10.65;;;;;;;9.39;99.57;101734.00;8293298;28;20057;-57
2024/01/30 00:52:55;;;;;;;19.92;11.23;;;;;;;9.34;100.00;101728.91;8291043;28;20532;-56
2024/01/30 00:56:56;;;;;;;21.70;10.55;;;;;;;9.39;100.00;101726.75;8293251;28;20164;-56
2024/01/30 01:00:58;;;;;;;22.45;10.88;;;;;;;9.39;100.00;101728.59;8294679;28;20507;-57
2024/01/30 01:04:58;;;;;;;18.98;10.82;;;;;;;9.39;100.00;101734.00;8294463;28;20076;-57
2024/01/30 01:08:59;;;;;;;19.08;10.50;;;;;;;9.25;100.00;101731.38;8294611;28;20080;-57
2024/01/30 01:13:00;;;;;;;22.13;11.27;;;;;;;9.16;100.00;101723.88;8294239;28;20049;-61
2024/01/30 01:17:00;;;;;;;21.15;11.82;;;;;;;9.11;100.00;101734.09;8294879;28;20100;-58
2024/01/30 01:21:02;;;;;;;18.63;11.10;;;;;;;9.12;100.00;101725.91;8294089;28;20377;-60
2024/01/30 01:25:02;;;;;;;27.00;12.60;;;;;;;9.20;100.00;101728.97;8293053;28;20076;-60
2024/01/30 01:29:09;;;;;;;18.95;11.32;;;;;;;9.23;100.00;101733.28;8289489;28;20043;-56
2024/01/30 01:33:10;;;;;;;19.80;11.48;;;;;;;9.32;100.00;101730.84;8293606;28;20412;-58
2024/01/30 01:37:10;;;;;;;21.02;11.25;;;;;;;9.20;100.00;101720.00;8280537;28;20046;-57
2024/01/30 01:41:11;;;;;;;18.95;11.23;;;;;;;9.20;100.00;101725.41;8293203;28;20038;-56
2024/01/30 01:45:11;;;;;;;22.10;11.38;;;;;;;9.20;100.00;101722.69;8292269;28;20120;-55
2024/01/30 01:49:12;;;;;;;20.17;11.70;;;;;;;9.22;100.00;101715.38;8284456;28;20408;-56
2024/01/30 01:53:13;;;;;;;17.75;11.02;;;;;;;9.22;100.00;101720.78;8291715;28;20423;-56
2024/01/30 01:57:14;;;;;;;19.73;10.95;;;;;;;9.21;100.00;101724.47;8290484;28;20033;-57
2024/01/30 02:01:15;;;;;;;20.70;10.77;;;;;;;9.14;100.00;101723.13;8293247;28;20046;-55
2024/01/30 02:05:16;;;;;;;20.58;11.93;;;;;;;9.18;100.00;101720.09;8292077;28;20046;-55
2024/01/30 02:09:17;;;;;;;18.20;10.70;;;;;;;9.28;100.00;101714.97;8287927;28;20122;-55
2024/01/30 02:13:17;;;;;;;19.50;11.02;;;;;;;9.32;100.00;101716.47;8282980;28;20092;-55
2024/01/30 02:17:18;;;;;;;17.02;10.68;;;;;;;9.37;100.00;101711.66;8292077;28;20578;-56
2024/01/30 02:21:19;;;;;;;16.95;10.10;;;;;;;9.42;100.00;101701.38;8292031;28;20049;-55
2024/01/30 02:25:20;;;;;;;16.50;10.40;;;;;;;9.43;100.00;101703.16;8292336;28;20408;-55
2024/01/30 02:29:20;;;;;;;19.52;9.65;;;;;;;9.51;100.00;101700.75;8291859;28;20056;-57
2024/01/30 02:33:22;;;;;;;19.10;11.25;;;;;;;9.40;100.00;101700.66;8281998;28;20041;-56
2024/01/30 02:37:22;;;;;;;20.67;10.70;;;;;;;9.34;100.00;101690.28;8291569;28;20060;-55
2024/01/30 02:41:23;;;;;;;19.73;10.00;;;;;;;9.36;100.00;101693.72;8290895;28;20041;-56
2024/01/30 02:45:23;;;;;;;21.85;11.95;;;;;;;9.27;100.00;101697.06;8287040;28;20124;-56
2024/01/30 02:49:23;;;;;;;23.60;10.98;;;;;;;9.22;100.00;101688.41;8291473;28;20515;-55
2024/01/30 02:53:24;;;;;;;22.85;11.23;;;;;;;9.23;100.00;101684.72;8291235;28;20062;-55
2024/01/30 02:57:25;;;;;;;20.70;10.98;;;;;;;9.05;100.00;101678.75;8291540;28;20412;-56
2024/01/30 03:01:25;;;;;;;23.25;11.15;;;;;;;9.10;100.00;101681.13;8291565;28;20548;-56
2024/01/30 03:05:25;;;;;;;19.42;10.52;;;;;;;9.12;100.00;101677.34;8291241;28;20053;-56
2024/01/30 03:09:26;;;;;;;18.98;10.13;;;;;;;9.09;100.00;101680.25;8290953;28;20052;-56
2024/01/30 03:13:26;;;;;;;24.90;11.45;;;;;;;9.06;100.00;101683.16;8291408;28;20493;-55
2024/01/30 03:17:28;;;;;;;16.63;10.00;;;;;;;9.06;100.00;101682.31;8290489;28;20037;-56
2024/01/30 03:21:29;;;;;;;19.00;11.05;;;;;;;9.11;100.00;101680.16;8290518;28;20038;-56
2024/01/30 03:25:29;;;;;;;21.58;11.48;;;;;;;9.11;100.00;101672.94;8290724;28;20045;-56
2024/01/30 03:29:30;;;;;;;22.17;11.80;;;;;;;9.12;100.00;101671.09;8290853;28;20038;-55
2024/01/30 03:33:32;;;;;;;23.40;11.02;;;;;;;9.13;100.00;101659.34;8290515;28;20045;-56
2024/01/30 03:37:33;;;;;;;20.63;10.73;;;;;;;9.14;100.00;101669.16;8290714;28;20041;-56
2024/01/30 03:41:33;;;;;;;19.35;10.48;;;;;;;9.18;100.00;101670.69;8289996;28;20053;-56
2024/01/30 03:45:34;;;;;;;17.42;9.23;;;;;;;9.14;100.00;101663.75;8287047;28;20046;-56
2024/01/30 03:49:34;;;;;;;19.67;11.18;;;;;;;9.18;100.00;101668.84;8292340;28;20038;-56
2024/01/30 03:53:35;;;;;;;19.65;10.13;;;;;;;9.17;100.00;101664.44;8296796;28;20064;-56
2024/01/30 03:57:35;;;;;;;20.10;10.00;;;;;;;9.05;100.00;101665.25;8296864;28;20046;-56
2024/01/30 04:01:36;;;;;;;18.65;9.70;;;;;;;9.06;100.00;101656.19;8300835;28;20526;-56
2024/01/30 04:05:36;;;;;;;18.15;11.00;;;;;;;8.99;100.00;101662.09;8296607;28;20103;-57
2024/01/30 04:09:38;;;;;;;20.40;9.68;;;;;;;9.06;100.00;101661.56;8296219;28;20034;-55
2024/01/30 04:13:38;;;;;;;18.27;9.75;;;;;;;9.06;100.00;101661.56;8294403;28;20052;-58
2024/01/30 04:17:39;;;;;;;19.15;10.60;;;;;;;8.88;100.00;101661.97;8291111;28;20042;-58
2024/01/30 04:21:40;;;;;;;16.85;10.18;;;;;;;8.71;100.00;101654.09;8286436;28;20622;-58
2024/01/30 04:25:41;;;;;;;16.50;9.38;;;;;;;8.63;100.00;101661.84;8295755;28;20077;-60
2024/01/30 04:29:43;;;;;;;17.20;10.77;;;;;;;8.59;100.00;101652.22;8291787;28;20479;-57
2024/01/30 04:33:44;;;;;;;19.02;10.60;;;;;;;8.53;100.00;101656.19;8295326;28;20049;-57
2024/01/30 04:37:44;;;;;;;21.98;11.00;;;;;;;8.57;100.00;101652.31;8295408;28;20057;-56
2024/01/30 04:41:45;;;;;;;17.08;10.00;;;;;;;8.55;100.00;101654.25;8294947;28;20042;-57
2024/01/30 04:45:45;;;;;;;20.17;9.75;;;;;;;8.60;100.00;101662.91;8295173;28;20049;-57
2024/01/30 04:49:46;;;;;;;21.10;11.15;;;;;;;8.64;100.00;101652.78;8295426;28;20045;-57
2024/01/30 04:53:46;;;;;;;19.08;10.18;;;;;;;8.63;100.00;101648.38;8293547;28;20125;-58
2024/01/30 04:57:46;;;;;;;17.75;9.48;;;;;;;8.61;100.00;101643.09;8294755;28;20133;-59
2024/01/30 05:01:47;;;;;;;20.60;11.20;;;;;;;8.70;100.00;101647.00;8279313;28;20496;-58
2024/01/30 05:05:47;;;;;;;20.63;10.52;;;;;;;8.73;100.00;101650.38;8290677;28;20046;-57
2024/01/30 05:09:48;;;;;;;18.52;10.75;;;;;;;8.62;100.00;101654.72;8291426;28;20034;-58
2024/01/30 05:13:48;;;;;;;27.80;10.75;;;;;;;8.62;100.00;101649.31;8293142;28;20073;-57
2024/01/30 05:17:49;;;;;;;13.93;9.55;;;;;;;8.55;100.00;101650.69;8290516;28;20111;-57
2024/01/30 05:21:50;;;;;;;17.90;9.52;;;;;;;8.50;100.00;101647.41;8292704;28;20065;-57
2024/01/30 05:25:50;;;;;;;19.92;9.57;;;;;;;8.60;100.00;101645.88;8290927;28;20045;-57
2024/01/30 05:29:51;;;;;;;17.02;9.02;;;;;;;8.61;100.00;101643.09;8293306;28;20128;-57
2024/01/30 05:33:51;;;;;;;19.45;9.50;;;;;;;8.64;100.00;101644.69;8286739;28;20404;-56
2024/01/30 05:37:51;;;;;;;24.27;11.43;;;;;;;8.82;100.00;101640.78;8292834;28;20038;-57
2024/01/30 05:41:52;;;;;;;16.80;9.40;;;;;;;8.87;100.00;101644.03;8289102;28;20069;-58
2024/01/30 05:45:52;;;;;;;16.33;9.43;;;;;;;9.02;100.00;101637.59;8290241;28;20058;-59
2024/01/30 05:49:53;;;;;;;17.15;10.02;;;;;;;9.13;100.00;101645.84;8292468;28;20049;-58
2024/01/30 05:53:53;;;;;;;19.27;9.70;;;;;;;9.09;100.00;101629.00;8276368;28;20041;-57
2024/01/30 05:57:54;;;;;;;20.67;9.90;;;;;;;9.14;100.00;101647.56;8292951;28;20500;-57
2024/01/30 06:01:54;;;;;;;20.83;9.18;;;;;;;8.96;100.00;101630.81;8293010;28;20073;-58
2024/01/30 06:05:55;;;;;;;20.10;10.02;;;;;;;8.95;100.00;101637.19;8315650;28;20062;-55
2024/01/30 06:09:55;;;;;;;22.98;9.80;;;;;;;8.80;100.00;101631.94;8284092;28;20469;-56
2024/01/30 06:13:55;;;;;;;19.25;10.15;;;;;;;8.70;100.00;101628.13;8281237;28;20108;-56
2024/01/30 06:17:57;;;;;;;17.15;9.73;;;;;;;8.66;100.00;101629.31;8282457;28;20565;-56
2024/01/30 06:21:57;;;;;;;15.82;9.75;;;;;;;8.67;100.00;101631.91;8269716;28;20048;-56
2024/01/30 06:25:58;;;;;;;19.95;9.02;;;;;;;8.56;100.00;101622.75;8291740;28;20042;-56
2024/01/30 06:29:58;;;;;;;14.80;9.15;;;;;;;8.71;100.00;101621.75;8298687;28;20056;-56
2024/01/30 06:33:59;;;;;;;16.35;8.80;;;;;;;8.72;100.00;101623.50;8288059;28;20393;-57
2024/01/30 06:37:59;;;;;;;15.80;9.85;;;;;;;8.85;100.00;101613.63;8273642;28;20045;-56
2024/01/30 06:42:00;;;;;;;15.93;9.43;;;;;;;9.08;100.00;101615.63;8285357;28;20528;-57
2024/01/30 06:46:00;;;;;;;17.25;8.88;;;;;;;8.90;100.00;101615.03;8276466;28;20693;-56
2024/01/30 06:50:02;;;;;;;20.13;9.60;;;;;;;8.81;100.00;101622.91;8282509;28;20042;-56
2024/01/30 06:54:02;;;;;;;18.20;9.93;;;;;;;8.81;100.00;101617.50;8285388;28;20076;-56
2024/01/30 06:58:03;;;;;;;16.38;9.20;;;;;;;9.05;100.00;101619.41;8278503;28;20038;-57
2024/01/30 07:02:03;;;;;;;17.70;9.85;;;;;;;9.30;100.00;101632.09;8282360;28;20364;-56
2024/01/30 07:06:04;;;;;;;18.02;9.25;;;;;;;9.39;100.00;101626.03;8286618;28;20107;-64
2024/01/30 07:10:05;;;;;;;15.70;10.15;;;;;;;9.35;100.00;101638.00;8287865;28;20046;-56
2024/01/30 07:14:05;;;;;;;18.48;9.45;;;;;;;9.36;100.00;101631.63;8271843;28;20100;-56
2024/01/30 07:18:06;;;;;;;19.58;9.60;;;;;;;9.34;100.00;101623.66;8282877;28;20496;-56
2024/01/30 07:22:07;;;;;;;24.10;10.25;;;;;;;9.50;100.00;101634.25;8283702;28;20492;-57
2024/01/30 07:26:09;;;;;;;15.27;9.35;;;;;;;9.68;100.00;101627.56;8289385;28;20046;-57
2024/01/30 07:30:09;;;;;;;15.43;10.25;;;;;;;9.69;100.00;101632.00;8287437;28;20049;-55
2024/01/30 07:34:10;;;;;;;17.65;10.07;;;;;;;9.68;100.00;101639.25;8291455;28;20048;-56
2024/01/30 07:38:10;;;;;;;15.55;9.15;;;;;;;9.75;100.00;101635.13;8294146;28;20053;-55
2024/01/30 07:42:11;;;;;;;18.90;9.95;;;;;;;9.83;100.00;101632.75;8293823;28;20476;-57
2024/01/30 07:46:11;;;;;;;17.73;9.35;;;;;;;9.96;100.00;101646.25;8288893;28;20113;-56
2024/01/30 07:50:12;;;;;;;29.75;11.40;;;;;;;9.92;100.00;101645.59;8293051;28;20045;-56
2024/01/30 07:54:14;;;;;;;17.98;9.95;;;;;;;9.91;100.00;101653.81;8291740;28;20057;-55
2024/01/30 07:58:17;;;;;;;18.50;10.23;;;;;;;9.90;100.00;101660.19;8292520;28;20065;-56
2024/01/30 08:02:17;;;;;;;25.40;9.68;;;;;;;10.00;100.00;101661.25;8291525;28;20037;-55
2024/01/30 08:06:18;;;;;;;22.83;9.45;;;;;;;10.01;100.00;101663.00;8292442;28;20627;-57
2024/01/30 08:10:20;;;;;;;20.50;9.95;;;;;;;10.03;100.00;101655.63;8293185;28;20413;-56
2024/01/30 08:14:20;;;;;;;19.80;9.73;;;;;;;10.07;100.00;101656.34;8292228;28;20032;-56
2024/01/30 08:18:21;;;;;;;19.83;9.38;;;;;;;10.27;100.00;101659.31;8290632;28;20038;-56
2024/01/30 08:22:21;;;;;;;21.70;9.88;;;;;;;10.25;100.00;101650.47;8290534;28;20072;-56
2024/01/30 08:26:22;;;;;;;16.05;10.02;;;;;;;10.29;100.00;101662.78;8291934;28;20065;-55
2024/01/30 08:30:22;;;;;;;21.25;11.20;;;;;;;10.42;100.00;101663.63;8299412;28;20034;-56
2024/01/30 08:34:24;;;;;;;20.77;10.65;;;;;;;10.49;100.00;101670.31;8290137;28;20034;-56
2024/01/30 08:38:24;;;;;;;18.40;9.65;;;;;;;10.45;99.98;101652.59;8290746;28;20038;-57
2024/01/30 08:42:25;;;;;;;15.38;8.75;;;;;;;10.54;100.00;101673.53;8291918;28;20126;-56
2024/01/30 08:46:26;;;;;;;21.55;10.18;;;;;;;10.68;99.69;101665.28;8291525;28;20050;-57
2024/01/30 08:50:26;;;;;;;19.58;12.20;;;;;;;10.87;98.61;101665.66;8291124;28;20420;-55
2024/01/30 08:54:27;;;;;;;16.65;9.48;;;;;;;10.96;98.27;101677.63;8291365;28;20034;-57
2024/01/30 08:58:27;;;;;;;17.30;9.48;;;;;;;11.01;98.53;101667.31;8291883;28;20121;-56
2024/01/30 09:02:27;;;;;;;16.98;9.13;;;;;;;11.10;98.29;101678.28;8290182;28;20351;-55
2024/01/30 09:06:28;;;;;;;24.63;9.65;;;;;;;11.24;97.96;101680.84;8290595;28;20052;-55
2024/01/30 09:10:29;;;;;;;14.48;9.07;;;;;;;11.24;98.10;101685.38;8291006;28;20042;-56
2024/01/30 09:14:29;;;;;;;16.63;9.65;;;;;;;11.32;98.25;101694.63;8290595;28;20531;-57
2024/01/30 09:18:30;;;;;;;17.77;10.38;;;;;;;11.39;98.36;101708.59;8290268;28;20052;-57
2024/01/30 09:22:31;;;;;;;19.02;9.43;;;;;;;11.38;98.03;101710.41;8312134;28;20447;-57
2024/01/30 09:26:31;;;;;;;15.30;9.82;;;;;;;11.40;99.28;101713.88;8290459;28;20049;-57
2024/01/30 09:30:32;;;;;;;17.42;9.75;;;;;;;11.65;98.50;101718.34;8289501;28;20049;-57
2024/01/30 09:34:32;;;;;;;19.90;9.73;;;;;;;11.78;98.10;101730.78;8289921;28;20037;-59
2024/01/30 09:38:33;;;;;;;18.90;9.52;;;;;;;11.86;96.97;101739.19;8290322;28;20041;-58
2024/01/30 09:42:36;;;;;;;19.75;9.45;;;;;;;11.92;97.23;101742.44;8289544;28;20479;-57
2024/01/30 09:46:37;;;;;;;16.08;9.13;;;;;;;11.70;98.57;101754.91;8289755;28;20460;-57
2024/01/30 09:50:38;;;;;;;17.50;9.60;;;;;;;11.96;98.62;101749.31;8287504;28;20053;-55
2024/01/30 09:54:40;;;;;;;19.73;9.32;;;;;;;11.89;98.34;101738.09;8280260;28;20057;-56
2024/01/30 09:58:41;;;;;;;20.75;11.45;;;;;;;12.02;97.70;101748.84;8289422;28;20059;-58
2024/01/30 10:02:42;;;;;;;19.73;9.35;;;;;;;12.19;97.18;101743.81;8288919;28;20445;-58
2024/01/30 10:06:43;;;;;;;17.23;10.13;;;;;;;12.29;96.71;101738.53;8288910;28;20050;-57
2024/01/30 10:10:47;;;;;;;27.10;9.73;;;;;;;12.16;97.75;101745.91;8288491;28;20077;-55
2024/01/30 10:14:48;;;;;;;17.58;9.70;;;;;;;11.99;99.89;101738.25;8285314;28;20046;-57
2024/01/30 10:18:48;;;;;;;18.60;9.93;;;;;;;12.11;100.00;101740.00;8288626;28;20049;-57
2024/01/30 10:22:49;;;;;;;16.20;9.48;;;;;;;12.28;99.49;101737.66;8288990;28;20533;-56
2024/01/30 10:26:50;;;;;;;17.13;9.63;;;;;;;12.58;96.43;101748.78;8287955;28;20042;-57
2024/01/30 10:30:59;;;;;;;19.02;8.75;;;;;;;12.77;95.14;101751.75;8288075;28;20038;-57
2024/01/30 10:35:00;;;;;;;18.38;9.63;;;;;;;12.94;94.32;101739.50;8286679;28;20069;-57
2024/01/30 10:39:01;;;;;;;18.02;7.82;;;;;;;12.88;94.56;101734.56;8279107;28;20100;-57
2024/01/30 10:43:02;;;;;;;14.57;9.55;;;;;;;12.97;95.42;101744.69;8288463;28;20431;-58
2024/01/30 10:47:08;;;;;;;17.67;8.95;;;;;;;13.11;94.61;101755.28;8282823;28;20046;-58
2024/01/30 10:51:09;;;;;;;17.20;9.25;;;;;;;13.18;93.83;101742.94;8283497;28;20045;-58
2024/01/30 10:55:10;;;;;;;16.85;9.52;;;;;;;13.23;94.23;101736.13;8278878;28;20209;-57
2024/01/30 10:59:13;;;;;;;12.73;8.73;;;;;;;13.08;93.20;101736.53;8287250;28;20051;-56
2024/01/30 11:03:13;;;;;;;11.80;8.02;;;;;;;13.13;93.11;101742.44;8284422;28;20044;-58
2024/01/30 11:11:28;;;;;;;16.13;8.73;;;;;;;13.43;91.98;101723.59;8342916;27;20407;-56
2024/01/30 11:15:28;;;;;;;11.30;8.18;;;;;;;13.49;91.21;101733.94;8329313;28;20037;-57
2024/01/30 11:19:31;;;;;;;12.32;8.00;;;;;;;13.43;92.98;101734.47;8332467;28;20064;-58
2024/01/30 11:23:34;;;;;;;16.35;8.98;;;;;;;13.44;92.82;101738.91;8328865;28;20029;-56
2024/01/30 11:27:34;;;;;;;21.23;9.38;;;;;;;13.65;92.38;101742.53;8332020;28;20376;-56
2024/01/30 11:31:34;;;;;;;13.40;8.80;;;;;;;13.77;91.78;101734.19;8332145;28;20061;-56
2024/01/30 11:35:37;;;;;;;16.85;9.65;;;;;;;14.10;89.27;101722.25;8331644;28;20068;-57
2024/01/30 11:39:41;;;;;;;18.35;11.02;;;;;;;14.18;87.71;101727.88;8330482;28;20052;-57
2024/01/30 11:43:41;;;;;;;23.95;12.57;;;;;;;14.14;87.65;101734.59;8330709;28;20053;-58
2024/01/30 11:47:42;;;;;;;19.42;10.73;;;;;;;14.18;88.13;101741.47;8334590;28;20498;-56
2024/01/30 11:51:49;;;;;;;18.20;9.52;;;;;;;14.01;89.85;101724.91;8330746;28;20478;-57
2024/01/30 11:55:50;;;;;;;18.08;9.43;;;;;;;13.98;90.24;101733.31;8329759;28;20033;-58
2024/01/30 11:59:50;;;;;;;17.52;10.60;;;;;;;13.89;91.18;101724.13;8327563;28;20072;-56
2024/01/30 12:03:51;;;;;;;18.70;9.60;;;;;;;13.82;91.97;101744.69;8330610;28;20045;-57
2024/01/30 12:07:52;;;;;;;16.48;8.75;;;;;;;13.91;90.92;101743.00;8330985;28;20029;-57
2024/01/30 12:11:52;;;;;;;14.43;8.55;;;;;;;14.18;89.50;101729.75;8331804;28;20369;-59
2024/01/30 12:15:53;;;;;;;17.55;8.60;;;;;;;14.26;88.29;101738.13;8330364;28;20041;-58
2024/01/30 12:20:06;;;;;;;17.20;8.32;;;;;;;14.44;86.01;101740.09;8341016;28;20042;-58
2024/01/30 12:24:07;;;;;;;19.10;7.15;;;;;;;14.55;84.37;101733.69;8305185;28;20461;-56
2024/01/30 12:28:08;;;;;;;14.43;6.78;;;;;;;14.64;83.95;101736.44;8307282;28;20037;-58
2024/01/30 12:32:08;;;;;;;18.00;8.10;;;;;;;14.59;84.94;101730.56;8306741;28;20050;-57
2024/01/30 12:36:09;;;;;;;15.70;6.35;;;;;;;14.59;85.60;101730.56;8322369;28;20060;-57
2024/01/30 12:40:11;;;;;;;17.27;6.53;;;;;;;14.82;84.83;101732.06;8307442;28;20053;-56
2024/01/30 12:44:14;;;;;;;15.48;6.53;;;;;;;15.07;84.90;101728.84;8306952;28;20064;-58
2024/01/30 12:48:15;;;;;;;18.23;6.22;;;;;;;15.13;84.90;101741.91;8308374;28;20180;-57
2024/01/30 12:52:16;;;;;;;15.20;6.68;;;;;;;15.24;86.14;101736.34;8320027;28;20048;-58
2024/01/30 12:56:16;;;;;;;16.98;7.00;;;;;;;15.34;85.95;101750.84;8309882;28;20132;-58
2024/01/30 13:00:17;;;;;;;9.98;5.75;;;;;;;15.34;85.18;101750.00;8310320;28;20415;-56
2024/01/30 13:04:17;;;;;;;11.45;6.00;;;;;;;15.34;86.02;101745.41;8308914;28;20468;-57
2024/01/30 13:08:18;;;;;;;14.18;6.05;;;;;;;15.29;85.42;101742.25;8307077;28;20561;-58
2024/01/30 13:12:18;;;;;;;10.55;4.90;;;;;;;15.19;85.79;101746.78;8306324;28;20037;-57
2024/01/30 13:16:18;;;;;;;9.45;5.38;;;;;;;15.13;86.27;101746.53;8306378;28;20037;-57
2024/01/30 13:20:20;;;;;;;10.48;5.65;;;;;;;15.10;86.42;101758.53;8306104;28;20042;-57
2024/01/30 13:24:21;;;;;;;9.05;4.97;;;;;;;15.07;86.14;101761.53;8304515;28;20116;-58
2024/01/30 13:28:21;;;;;;;10.48;4.80;;;;;;;15.15;85.98;101772.59;8305689;28;20038;-58
2024/01/30 13:32:22;;;;;;;9.68;5.20;;;;;;;15.07;86.26;101775.16;8305710;28;20129;-59
2024/01/30 13:36:22;;;;;;;10.98;5.32;;;;;;;14.90;87.51;101783.13;8306313;28;20454;-58
2024/01/30 13:40:23;;;;;;;10.30;4.80;;;;;;;14.84;87.41;101786.41;8306599;28;20384;-59
2024/01/30 13:44:23;;;;;;;9.77;4.85;;;;;;;14.81;87.97;101797.56;8303831;28;20037;-59
2024/01/30 13:48:24;;;;;;;8.45;5.60;;;;;;;14.75;88.17;101798.97;8302728;28;20049;-58
2024/01/30 13:52:24;;;;;;;11.13;5.22;;;;;;;14.82;87.25;101797.44;8302322;28;20129;-57
2024/01/30 13:56:26;;;;;;;14.40;6.30;;;;;;;14.79;87.10;101803.13;8306642;28;20041;-56
2024/01/30 14:00:27;;;;;;;11.20;5.72;;;;;;;14.73;87.90;101809.13;8301857;28;20045;-57
2024/01/30 14:04:27;;;;;;;14.82;6.03;;;;;;;14.66;88.46;101813.41;8304957;28;20033;-57
2024/01/30 14:08:28;;;;;;;12.13;6.18;;;;;;;14.65;88.82;101806.25;8304631;28;20042;-57
2024/01/30 14:12:30;;;;;;;12.73;6.45;;;;;;;14.57;89.40;101803.31;8303933;28;20183;-57
2024/01/30 14:16:30;;;;;;;13.35;6.82;;;;;;;14.60;89.14;101797.59;8303064;28;20044;-56
2024/01/30 14:20:31;;;;;;;14.80;6.82;;;;;;;14.52;89.83;101805.56;8305152;28;20563;-57
2024/01/30 14:24:31;;;;;;;14.95;7.07;;;;;;;14.53;89.89;101806.44;8300216;28;20038;-58
2024/01/30 14:28:33;;;;;;;18.15;6.90;;;;;;;14.57;89.49;101797.88;8303833;28;20041;-58
2024/01/30 14:32:34;;;;;;;14.73;7.15;;;;;;;14.50;89.56;101785.81;8303893;28;20041;-56
2024/01/30 14:36:35;;;;;;;17.75;7.50;;;;;;;14.52;89.39;101791.97;8303350;28;20132;-56
2024/01/30 14:40:35;;;;;;;15.25;7.68;;;;;;;14.50;89.79;101802.16;8302805;28;20034;-56
2024/01/30 14:44:36;;;;;;;12.07;7.55;;;;;;;14.43;90.45;101800.97;8301773;28;20119;-57
2024/01/30 14:48:37;;;;;;;13.23;8.30;;;;;;;14.51;89.05;101797.53;8303247;28;20125;-56
2024/01/30 14:52:39;;;;;;;21.27;8.93;;;;;;;14.60;88.78;101796.75;8302488;28;20104;-56
2024/01/30 14:56:41;;;;;;;13.30;8.05;;;;;;;14.64;87.41;101804.50;8303224;28;20484;-56
2024/01/30 15:00:43;;;;;;;13.52;7.55;;;;;;;14.66;87.37;101807.97;8300972;28;20506;-57
2024/01/30 15:04:43;;;;;;;10.15;6.35;;;;;;;14.67;86.66;101820.56;8302262;28;20076;-57
2024/01/30 15:08:44;;;;;;;17.55;7.75;;;;;;;14.63;86.67;101819.13;8303858;28;20060;-57
2024/01/30 15:12:44;;;;;;;11.63;6.68;;;;;;;14.65;86.58;101822.56;8305550;28;20242;-57
2024/01/30 15:16:45;;;;;;;16.05;7.60;;;;;;;14.60;86.80;101833.00;8302886;28;20037;-56
2024/01/30 15:20:45;;;;;;;14.95;8.00;;;;;;;14.54;86.45;101841.69;8302033;28;20041;-56
2024/01/30 15:24:45;;;;;;;17.25;8.60;;;;;;;14.50;87.37;101853.84;8312022;28;20054;-57
2024/01/30 15:28:46;;;;;;;16.25;7.72;;;;;;;14.47;86.53;101851.41;8317489;28;20056;-57
2024/01/30 15:32:46;;;;;;;18.10;8.35;;;;;;;14.49;86.87;101854.81;8328189;28;20040;-59
2024/01/30 15:36:48;;;;;;;31.17;13.25;;;;;;;14.25;88.65;101867.84;8318967;28;20128;-56
2024/01/30 15:40:51;;;;;;;26.27;11.48;;;;;;;13.96;90.04;101888.44;8313898;28;20053;-56
2024/01/30 15:44:51;;;;;;;19.50;9.57;;;;;;;13.77;90.31;101888.28;8321589;28;20047;-57
2024/01/30 15:48:52;;;;;;;27.17;10.85;;;;;;;13.60;90.12;101905.09;8314718;28;20042;-56
2024/01/30 15:52:52;;;;;;;24.40;10.02;;;;;;;13.60;90.10;101908.69;8297899;28;20042;-58
2024/01/30 15:56:52;;;;;;;29.60;9.20;;;;;;;13.51;90.11;101914.03;8305026;28;20049;-57
2024/01/30 16:00:53;;;;;;;16.65;7.85;;;;;;;13.46;89.67;101916.25;8310055;28;20061;-57
2024/01/30 16:04:53;;;;;;;18.48;7.55;;;;;;;13.35;89.50;101919.84;8321603;28;20119;-57
2024/01/30 16:08:54;;;;;;;10.02;4.88;;;;;;;13.38;86.66;101916.00;8320269;28;20573;-58
2024/01/30 16:12:54;;;;;;;9.20;3.80;;;;;;;13.34;84.59;101925.38;8319409;28;20326;-58
2024/01/30 16:16:56;;;;;;;10.02;3.70;;;;;;;13.28;83.66;101939.47;8319159;28;20038;-58
2024/01/30 16:20:57;;;;;;;7.43;3.50;;;;;;;13.22;83.64;101942.66;8302648;28;20091;-57
2024/01/30 16:24:57;;;;;;;6.95;3.30;;;;;;;13.29;83.49;101952.03;8313380;28;20041;-57
2024/01/30 16:28:58;;;;;;;7.93;3.80;;;;;;;13.27;83.34;101954.88;8315578;28;20398;-56
2024/01/30 16:33:00;;;;;;;19.70;6.50;;;;;;;13.22;83.71;101959.84;8312583;28;20092;-58
2024/01/30 16:37:01;;;;;;;10.75;4.95;;;;;;;13.07;84.80;101968.31;8316950;28;20411;-57
2024/01/30 16:41:01;;;;;;;14.77;5.00;;;;;;;13.04;85.27;101980.31;8333635;28;20037;-59
2024/01/30 16:45:02;;;;;;;11.48;4.35;;;;;;;12.96;85.90;101990.00;8315116;28;20073;-59
2024/01/30 16:49:02;;;;;;;9.43;4.35;;;;;;;12.96;85.82;101999.00;8315412;28;20043;-60
2024/01/30 16:53:03;;;;;;;11.98;3.08;;;;;;;12.99;83.54;101997.91;8297649;28;20045;-59
2024/01/30 16:57:04;;;;;;;7.82;2.35;;;;;;;12.87;82.87;101998.88;8291408;28;20833;-59
2024/01/30 17:01:04;;;;;;;6.50;1.70;;;;;;;12.91;80.09;101994.91;8314159;28;20050;-59
2024/01/30 17:05:05;;;;;;;2.97;1.20;;;;;;;12.91;79.01;102011.22;8311926;28;20057;-59
2024/01/30 17:09:05;;;;;;;9.20;1.90;;;;;;;12.81;79.17;101991.22;8316738;28;20511;-58
2024/01/30 17:13:06;;;;;;;5.10;1.35;;;;;;;12.79;78.39;102023.91;8315789;28;20044;-58
2024/01/30 17:17:09;;;;;;;5.88;1.55;;;;;;;12.76;78.25;102028.69;8304052;28;20045;-58
2024/01/30 17:21:16;;;;;;;8.07;1.40;;;;;;;12.81;78.68;102032.75;8311527;28;20062;-57
2024/01/30 17:25:17;;;;;;;4.93;1.67;;;;;;;12.76;79.31;102044.97;8310034;28;20045;-58
2024/01/30 17:29:18;;;;;;;5.03;1.30;;;;;;;12.65;79.70;102042.19;8304734;28;20040;-58
2024/01/30 17:33:19;;;;;;;2.78;1.25;;;;;;;12.65;80.12;102045.78;8315123;28;20033;-59
2024/01/30 17:37:19;;;;;;;4.90;1.52;;;;;;;12.57;79.58;102050.06;8317512;28;20132;-59
2024/01/30 17:41:20;;;;;;;6.25;1.67;;;;;;;12.63;79.32;102052.31;8307055;28;20448;-60
2024/01/30 17:45:20;;;;;;;5.28;1.13;;;;;;;12.52;78.20;102063.09;8301697;28;20037;-59
2024/01/30 17:49:20;;;;;;;1.48;1.10;;;;;;;12.52;78.76;102069.41;8304968;28;20045;-59
2024/01/30 17:53:21;;;;;;;2.72;1.52;;;;;;;12.51;77.88;102069.53;8273312;28;20615;-59
2024/01/30 17:57:21;;;;;;;6.35;1.88;;;;;;;12.43;78.83;102085.50;8285445;28;20377;-57
2024/01/30 18:01:22;;;;;;;4.15;2.58;;;;;;;12.36;79.38;102090.53;8289589;28;20058;-58
2024/01/30 18:05:23;;;;;;;3.67;1.40;;;;;;;12.30;79.02;102087.38;8284197;28;20034;-58
2024/01/30 18:09:25;;;;;;;5.00;1.45;;;;;;;12.30;78.69;102084.69;8309307;28;20146;-58
2024/01/30 18:13:25;;;;;;;4.57;1.00;;;;;;;12.30;77.92;102095.53;8306453;28;20127;-57
2024/01/30 18:17:26;;;;;;;7.82;1.20;;;;;;;12.28;76.54;102092.91;8291994;28;20037;-57
2024/01/30 18:21:26;;;;;;;6.93;1.13;;;;;;;12.37;75.18;102099.50;8300218;28;20087;-57
2024/01/30 18:25:28;;;;;;;6.97;1.30;;;;;;;12.39;74.41;102106.56;8318101;28;20081;-57